Time;durP1;ratioP1;P1;durP2;ratioP2;P2;SDS_P1;SDS_P2;PMS_P1;PMS_P2;Temp;Humidity;BMP_temperature;BMP_pressure;BME280_temperature;BME280_humidity;BME280_pressure;Samples;Min_cycle;Max_cycle;Signal;HPM_P1;HPM_P2
2023/07/29 00:02:22;;;;;;;9.40;6.07;;;;;;;27.02;51.96;100863.72;4936847;28;20052;-78
2023/07/29 00:04:49;;;;;;;;;;;;;;;27.20;52.31;100919.97;4965661;28;20050;-77
2023/07/29 00:07:15;;;;;;;12.50;6.40;;;;;;;26.76;52.13;100828.81;4969270;28;19921;-76
2023/07/29 00:09:42;;;;;;;10.70;7.03;;;;;;;27.21;52.14;100905.31;4959147;28;20153;-77
2023/07/29 00:12:12;;;;;;;14.00;7.00;;;;;;;27.22;52.38;100911.56;4965065;28;20057;-78
2023/07/29 00:14:39;;;;;;;10.45;7.10;;;;;;;27.11;52.23;100887.84;4941526;28;20074;-78
2023/07/29 00:17:10;;;;;;;10.32;6.93;;;;;;;27.10;52.28;100900.66;4932789;28;20060;-77
2023/07/29 00:19:36;;;;;;;12.90;6.95;;;;;;;26.97;52.62;100877.22;4932792;28;20055;-77
2023/07/29 00:22:04;;;;;;;10.48;6.03;;;;;;;26.93;52.69;100864.31;4925429;28;20371;-77
2023/07/29 00:24:31;;;;;;;11.52;7.70;;;;;;;27.14;52.50;100898.25;4924689;28;20140;-76
2023/07/29 00:26:58;;;;;;;14.05;6.95;;;;;;;27.02;52.78;100890.94;4923781;28;20500;-78
2023/07/29 00:29:24;;;;;;;13.60;6.55;;;;;;;26.90;52.96;100862.91;4932166;28;20516;-79
2023/07/29 00:31:51;;;;;;;14.48;7.00;;;;;;;27.12;52.78;100900.44;4955814;28;20341;-78
2023/07/29 00:34:19;;;;;;;12.73;6.78;;;;;;;27.12;52.75;100903.16;4902411;28;20315;-79
2023/07/29 00:36:46;;;;;;;14.20;6.60;;;;;;;27.06;52.73;100897.59;4929437;28;20085;-78
2023/07/29 00:39:13;;;;;;;10.90;6.10;;;;;;;27.10;52.65;100891.66;4921977;28;20352;-79
2023/07/29 00:41:40;;;;;;;8.45;5.82;;;;;;;26.96;52.51;100883.72;4917491;28;20106;-79
2023/07/29 00:44:11;;;;;;;11.82;6.15;;;;;;;26.80;52.75;100854.50;4893280;28;20067;-78
2023/07/29 00:46:45;;;;;;;19.40;7.03;;;;;;;27.03;52.81;100900.78;4902439;28;20085;-79
2023/07/29 00:49:12;;;;;;;8.32;6.22;;;;;;;26.88;53.00;100866.94;4892385;28;20061;-78
2023/07/29 00:51:39;;;;;;;9.98;6.55;;;;;;;27.14;52.74;100911.88;4899650;28;20134;-79
2023/07/29 00:54:09;;;;;;;9.82;6.50;;;;;;;26.97;52.48;100888.13;4901010;28;20054;-79
2023/07/29 00:56:36;;;;;;;12.25;6.40;;;;;;;27.01;53.53;100905.63;4911152;28;20250;-79
2023/07/29 00:59:04;;;;;;;13.32;6.60;;;;;;;26.90;53.41;100890.13;4907934;28;20334;-78
2023/07/29 01:01:32;;;;;;;14.40;6.50;;;;;;;26.90;53.14;100890.13;4852244;28;1208464;-80
2023/07/29 01:03:59;;;;;;;13.57;6.70;;;;;;;26.93;53.22;100875.22;4904442;28;20636;-78
2023/07/29 01:06:58;;;;;;;13.65;6.60;;;;;;;27.14;52.68;100910.03;4912880;28;20686;-79
2023/07/29 01:09:58;;;;;;;12.68;6.20;;;;;;;27.14;52.88;100911.88;4929596;28;20055;-79
2023/07/29 01:12:52;;;;;;;14.77;6.65;;;;;;;27.15;52.21;100917.09;4974846;28;20486;-78
2023/07/29 01:15:39;;;;;;;9.13;5.55;;;;;;;27.06;52.98;100903.03;4946477;28;20057;-77
2023/07/29 01:18:22;;;;;;;8.25;6.53;;;;;;;27.02;52.83;100890.13;4946774;28;20435;-78
2023/07/29 01:20:53;;;;;;;8.48;5.95;;;;;;;27.02;52.82;100890.94;4962841;28;20386;-78
2023/07/29 01:23:24;;;;;;;10.32;6.20;;;;;;;27.11;53.01;100909.66;4966911;28;20092;-78
2023/07/29 01:25:55;;;;;;;13.60;7.00;;;;;;;26.99;52.89;100905.06;4915711;28;20058;-79
2023/07/29 01:28:23;;;;;;;8.52;5.82;;;;;;;26.92;52.80;100893.47;4954635;28;20238;-77
2023/07/29 01:31:07;;;;;;;8.35;6.72;;;;;;;26.95;52.81;100916.66;4934294;28;20579;-78
2023/07/29 01:33:59;;;;;;;11.95;6.57;;;;;;;26.96;53.14;100919.13;4919487;28;20046;-79
2023/07/29 01:36:33;;;;;;;14.13;6.18;;;;;;;26.77;53.08;100887.63;4895780;28;20145;-80
2023/07/29 01:39:02;;;;;;;12.15;6.60;;;;;;;26.54;53.30;100872.97;4901110;28;20061;-78
2023/07/29 01:41:30;;;;;;;10.15;6.88;;;;;;;26.69;53.62;100913.34;4867906;28;20416;-79
2023/07/29 01:43:57;;;;;;;11.30;5.93;;;;;;;26.73;53.23;100913.72;4912880;28;20130;-78
2023/07/29 01:46:27;;;;;;;9.65;5.80;;;;;;;26.67;53.19;100910.00;4921902;28;20137;-78
2023/07/29 01:48:54;;;;;;;15.23;6.15;;;;;;;26.39;53.12;100858.97;4926241;28;20038;-79
2023/07/29 01:51:21;;;;;;;11.85;6.25;;;;;;;26.57;53.60;100875.19;4941499;28;20050;-77
2023/07/29 01:53:50;;;;;;;13.13;5.97;;;;;;;26.83;53.15;100925.66;4926276;28;20100;-77
2023/07/29 01:56:20;;;;;;;12.63;6.25;;;;;;;26.58;53.27;100892.34;4945421;28;20084;-79
2023/07/29 01:58:49;;;;;;;8.57;6.35;;;;;;;26.71;53.58;100926.72;4933851;28;20145;-79
2023/07/29 02:01:19;;;;;;;9.30;5.82;;;;;;;26.54;53.99;100900.19;4932157;28;20055;-78
2023/07/29 02:03:54;;;;;;;9.80;6.40;;;;;;;26.53;53.92;100913.97;4911410;28;20055;-78
2023/07/29 02:06:22;;;;;;;11.60;6.28;;;;;;;26.43;53.84;100900.94;4950731;28;20130;-78
2023/07/29 02:08:49;;;;;;;7.63;5.80;;;;;;;26.07;53.77;100842.09;4987696;28;20046;-78
2023/07/29 02:11:16;;;;;;;12.43;7.05;;;;;;;26.60;53.59;100926.47;4982134;28;20402;-79
2023/07/29 02:13:44;;;;;;;8.18;6.32;;;;;;;26.41;53.96;100916.72;4970837;28;20046;-80
2023/07/29 02:16:11;;;;;;;16.30;6.45;;;;;;;26.44;53.95;100919.78;4951202;28;20107;-79
2023/07/29 02:18:47;;;;;;;8.63;6.43;;;;;;;26.21;54.46;100893.38;4957451;28;20046;-77
2023/07/29 02:21:14;;;;;;;21.83;6.65;;;;;;;26.30;54.30;100906.63;4956179;28;20161;-79
2023/07/29 02:23:44;;;;;;;9.10;6.35;;;;;;;26.10;54.10;100877.00;4943362;28;20621;-78
2023/07/29 02:26:11;;;;;;;14.95;6.47;;;;;;;26.29;54.58;100913.09;4971162;28;20505;-77
2023/07/29 02:28:37;;;;;;;11.38;6.53;;;;;;;26.29;54.73;100924.00;4954580;28;20497;-78
2023/07/29 02:31:22;;;;;;;8.73;6.85;;;;;;;26.24;55.13;100911.13;4956712;28;20085;-78
2023/07/29 02:33:49;;;;;;;13.18;7.05;;;;;;;26.20;54.85;100913.47;4938526;28;20129;-79
2023/07/29 02:36:20;;;;;;;10.93;6.32;;;;;;;26.03;54.80;100890.69;4937293;28;20486;-78
2023/07/29 02:38:49;;;;;;;15.07;6.45;;;;;;;26.13;54.98;100914.63;4929696;28;20323;-78
2023/07/29 02:41:16;;;;;;;12.43;7.05;;;;;;;26.06;55.11;100909.28;4946801;28;20651;-79
2023/07/29 02:43:43;;;;;;;13.40;6.15;;;;;;;26.00;55.37;100913.75;4962559;28;20357;-78
2023/07/29 02:46:14;;;;;;;13.35;6.15;;;;;;;26.04;55.28;100911.38;4937909;28;20144;-80
2023/07/29 02:48:45;;;;;;;10.93;6.13;;;;;;;26.01;55.44;100918.13;4904841;28;20451;-78
2023/07/29 02:51:11;;;;;;;9.70;6.70;;;;;;;25.88;55.34;100895.75;4926861;28;20053;-78
2023/07/29 02:53:38;;;;;;;11.35;7.15;;;;;;;25.64;55.56;100849.38;4938182;28;20117;-78
2023/07/29 02:56:08;;;;;;;9.18;6.18;;;;;;;25.98;55.38;100896.00;4951081;28;20062;-78
2023/07/29 02:58:36;;;;;;;10.40;6.65;;;;;;;26.01;55.57;100906.41;4935659;28;20169;-80
2023/07/29 03:01:07;;;;;;;11.57;6.40;;;;;;;26.04;55.56;100916.81;4902755;28;20542;-79
2023/07/29 03:03:35;;;;;;;9.57;6.40;;;;;;;25.91;55.82;100923.28;4924129;28;20085;-78
2023/07/29 03:06:07;;;;;;;13.13;6.63;;;;;;;25.91;56.00;100925.19;4932535;28;20054;-79
2023/07/29 03:08:34;;;;;;;13.95;6.55;;;;;;;25.87;56.11;100915.81;4961889;28;20045;-79
2023/07/29 03:11:19;;;;;;;7.47;6.22;;;;;;;25.87;56.15;100918.53;4943698;28;20116;-77
2023/07/29 03:13:46;;;;;;;8.98;6.30;;;;;;;25.47;56.01;100859.25;4943928;28;20233;-79
2023/07/29 03:16:17;;;;;;;12.43;6.82;;;;;;;25.70;56.10;100894.66;4906986;28;20735;-79
2023/07/29 03:18:44;;;;;;;11.23;6.93;;;;;;;25.56;56.54;100879.63;4908064;28;20130;-80
2023/07/29 03:21:14;;;;;;;10.98;6.38;;;;;;;25.48;56.00;100864.44;4897729;28;20058;-80
2023/07/29 03:23:44;;;;;;;13.57;6.25;;;;;;;25.56;56.17;100882.34;4912635;28;20240;-79
2023/07/29 03:26:10;;;;;;;14.25;6.60;;;;;;;25.65;56.50;100913.56;4928423;28;20046;-79
2023/07/29 03:28:43;;;;;;;13.73;6.70;;;;;;;25.50;56.45;100877.78;4925331;28;20554;-80
2023/07/29 03:31:11;;;;;;;10.55;6.38;;;;;;;25.83;56.24;100928.19;4930783;28;20046;-79
2023/07/29 03:33:39;;;;;;;10.63;6.35;;;;;;;25.46;56.37;100873.88;4905914;28;20406;-79
2023/07/29 03:36:06;;;;;;;14.02;6.57;;;;;;;25.86;56.19;100934.03;4901756;28;20476;-78
2023/07/29 03:38:35;;;;;;;9.18;6.40;;;;;;;25.33;56.27;100853.13;4915229;28;20502;-78
2023/07/29 03:41:06;;;;;;;13.02;6.15;;;;;;;25.45;56.14;100885.81;4918342;28;20051;-80
2023/07/29 03:43:38;;;;;;;12.00;6.30;;;;;;;25.71;56.23;100912.66;4924713;28;20526;-80
2023/07/29 03:46:08;;;;;;;11.38;6.50;;;;;;;25.44;56.65;100870.53;4897977;28;20042;-79
2023/07/29 03:48:41;;;;;;;10.82;7.15;;;;;;;25.51;56.26;100888.44;4922729;28;20471;-79
2023/07/29 03:51:08;;;;;;;12.50;6.40;;;;;;;25.79;55.92;100925.94;4929011;28;20050;-78
2023/07/29 03:53:35;;;;;;;12.77;7.15;;;;;;;25.76;56.17;100926.38;4919807;28;20050;-79
2023/07/29 03:56:02;;;;;;;10.50;6.70;;;;;;;25.76;56.29;100922.84;4929144;28;20273;-79
2023/07/29 03:58:28;;;;;;;11.45;6.38;;;;;;;25.25;56.78;100854.28;4934749;28;20182;-79
2023/07/29 04:00:55;;;;;;;13.90;6.78;;;;;;;25.63;56.68;100915.66;4916801;28;20478;-78
2023/07/29 04:03:21;;;;;;;11.50;6.40;;;;;;;25.63;56.63;100926.53;4922958;28;20370;-78
2023/07/29 04:05:49;;;;;;;11.43;6.63;;;;;;;25.62;56.91;100924.06;4946712;28;20050;-78
2023/07/29 04:08:16;;;;;;;14.32;6.53;;;;;;;25.58;57.07;100926.41;4956935;28;20056;-79
2023/07/29 04:10:46;;;;;;;9.40;6.30;;;;;;;25.83;57.41;100933.63;4962241;28;20054;-79
2023/07/29 04:13:16;;;;;;;11.63;6.65;;;;;;;25.74;56.61;100917.63;4983711;28;20042;-78
2023/07/29 04:15:43;;;;;;;12.10;5.50;;;;;;;25.96;56.73;100944.38;4957525;28;20406;-78
2023/07/29 04:18:09;;;;;;;13.55;6.47;;;;;;;26.01;56.39;100949.94;4939948;28;20046;-80
2023/07/29 04:20:39;;;;;;;13.63;6.93;;;;;;;25.92;56.09;100948.59;4932327;28;20422;-80
2023/07/29 04:23:07;;;;;;;14.65;6.15;;;;;;;25.71;55.82;100923.53;4940020;28;20236;-78
2023/07/29 04:25:34;;;;;;;6.82;5.68;;;;;;;25.99;55.76;100971.09;4924300;28;20089;-79
2023/07/29 04:28:03;;;;;;;13.07;6.55;;;;;;;25.72;55.85;100936.06;4939365;28;20427;-79
2023/07/29 04:30:29;;;;;;;12.77;6.05;;;;;;;25.71;55.77;100949.91;4941234;28;20441;-78
2023/07/29 04:32:56;;;;;;;14.25;7.60;;;;;;;25.83;55.80;100963.53;4937677;28;20058;-78
2023/07/29 04:35:27;;;;;;;14.82;7.35;;;;;;;25.63;56.24;100948.28;4934712;28;20058;-78
2023/07/29 04:38:00;;;;;;;11.82;6.07;;;;;;;25.84;55.90;100966.03;4921055;28;20049;-79
2023/07/29 04:40:27;;;;;;;13.20;6.97;;;;;;;25.64;56.23;100941.81;4916915;28;20273;-79
2023/07/29 04:42:54;;;;;;;14.40;6.45;;;;;;;25.71;56.38;100955.34;4915832;28;20088;-79
2023/07/29 04:45:21;;;;;;;18.60;6.85;;;;;;;25.69;56.70;100968.31;4920481;28;20332;-79
2023/07/29 04:47:52;;;;;;;13.52;7.03;;;;;;;25.67;57.06;100970.44;4924596;28;20077;-79
2023/07/29 04:50:19;;;;;;;16.10;6.50;;;;;;;25.65;57.09;100978.81;4932023;28;20073;-79
2023/07/29 04:52:50;;;;;;;14.65;6.90;;;;;;;25.64;57.45;100970.91;4924223;28;20145;-79
2023/07/29 04:55:22;;;;;;;10.15;6.30;;;;;;;25.41;57.29;100933.50;4926278;28;20130;-78
2023/07/29 04:57:56;;;;;;;12.77;6.15;;;;;;;25.56;57.69;100958.44;4933133;28;20622;-79
2023/07/29 05:00:29;;;;;;;9.13;6.10;;;;;;;25.57;57.79;100950.03;4903195;28;20042;-79
2023/07/29 05:03:01;;;;;;;9.00;6.88;;;;;;;25.69;57.73;100974.59;4923810;28;20084;-80
2023/07/29 05:05:27;;;;;;;;;;;;;;;25.70;57.96;100976.22;4920072;28;20515;-78
2023/07/29 05:07:59;;;;;;;12.65;6.80;;;;;;;25.67;57.44;100960.38;4925107;28;19921;-79
2023/07/29 05:10:32;;;;;;;9.88;6.60;;;;;;;25.71;57.45;100967.03;4957273;28;20222;-79
2023/07/29 05:12:59;;;;;;;10.88;6.75;;;;;;;25.72;57.18;100963.25;4935093;28;20551;-79
2023/07/29 05:15:26;;;;;;;11.50;6.45;;;;;;;25.62;57.19;100952.09;4944863;28;20046;-80
2023/07/29 05:17:56;;;;;;;9.93;6.80;;;;;;;25.68;57.16;100948.47;4930080;28;20050;-80
2023/07/29 05:20:23;;;;;;;12.98;6.40;;;;;;;25.63;57.05;100926.53;4939478;28;20333;-79
2023/07/29 05:22:50;;;;;;;11.02;5.90;;;;;;;26.13;56.09;100978.03;4937134;28;20112;-79
2023/07/29 05:25:19;;;;;;;10.32;6.38;;;;;;;25.63;56.15;100912.94;4926861;28;20195;-78
2023/07/29 05:27:46;;;;;;;10.20;6.35;;;;;;;26.12;56.38;100979.09;4924021;28;20498;-79
2023/07/29 05:30:20;;;;;;;17.08;6.93;;;;;;;26.17;56.76;100981.13;4927323;28;20054;-80
2023/07/29 05:32:50;;;;;;;12.30;6.40;;;;;;;26.12;56.37;100970.06;4926280;28;20043;-80
2023/07/29 05:35:20;;;;;;;12.47;6.80;;;;;;;26.11;56.42;100966.53;4924756;28;20356;-79
2023/07/29 05:37:47;;;;;;;10.43;6.85;;;;;;;26.37;56.60;100991.72;4938925;28;20309;-79
2023/07/29 05:40:18;;;;;;;16.27;6.32;;;;;;;26.24;56.12;100976.44;4921387;28;20427;-79
2023/07/29 05:42:52;;;;;;;10.10;6.38;;;;;;;26.38;55.77;100993.38;4924975;28;20053;-79
2023/07/29 05:45:25;;;;;;;11.27;6.75;;;;;;;26.15;55.93;100948.69;4919391;28;20141;-78
2023/07/29 05:47:51;;;;;;;10.45;6.03;;;;;;;26.41;55.25;100971.16;4930024;28;20046;-79
2023/07/29 05:50:22;;;;;;;10.60;6.43;;;;;;;26.50;55.50;100988.78;4919753;28;20104;-80
2023/07/29 05:52:49;;;;;;;26.85;6.93;;;;;;;26.24;55.63;100951.94;4939267;28;20350;-78
2023/07/29 05:55:16;;;;;;;15.27;6.57;;;;;;;26.48;55.11;100974.56;4900709;28;20407;-79
2023/07/29 05:57:42;;;;;;;11.05;6.40;;;;;;;26.60;54.88;100997.28;4922730;28;20054;-79
2023/07/29 06:00:10;;;;;;;11.05;6.55;;;;;;;26.44;55.45;100966.06;4945726;28;20191;-78
2023/07/29 06:02:50;;;;;;;13.90;7.75;;;;;;;26.75;54.25;100993.25;4939808;28;20407;-79
2023/07/29 06:05:20;;;;;;;;;;;;;;;26.76;54.33;100990.31;4948563;28;20208;-78
2023/07/29 06:07:53;;;;;;;13.90;6.13;;;;;;;26.42;55.09;100929.25;4924876;28;20281;-79
2023/07/29 06:10:24;;;;;;;15.68;6.78;;;;;;;26.73;54.75;100979.88;4941601;28;20593;-79
2023/07/29 06:12:50;;;;;;;14.00;5.72;;;;;;;26.69;55.01;100972.41;4954804;28;20057;-79
2023/07/29 06:15:22;;;;;;;8.77;6.32;;;;;;;26.78;55.08;100971.84;4964406;28;20612;-79
2023/07/29 06:17:49;;;;;;;13.40;6.70;;;;;;;26.80;54.68;100980.59;4934645;28;20064;-79
2023/07/29 06:20:16;;;;;;;13.07;7.18;;;;;;;26.81;54.79;100975.97;4940714;28;20042;-80
2023/07/29 06:22:48;;;;;;;19.38;6.55;;;;;;;26.55;54.51;100920.88;4941274;28;20042;-80
2023/07/29 06:25:24;;;;;;;11.48;5.82;;;;;;;26.69;54.42;100942.47;4929199;28;20050;-79
2023/07/29 06:27:58;;;;;;;14.80;6.53;;;;;;;26.81;54.87;100962.38;4920218;28;20068;-79
2023/07/29 06:30:26;;;;;;;13.38;6.80;;;;;;;26.88;54.68;100963.09;4920225;28;20408;-81
2023/07/29 06:32:54;;;;;;;8.90;6.63;;;;;;;26.98;55.13;100984.28;4916279;28;20435;-79
2023/07/29 06:35:21;;;;;;;12.52;6.00;;;;;;;26.98;54.50;100970.66;4917932;28;20046;-79
2023/07/29 06:37:55;;;;;;;8.15;6.38;;;;;;;26.97;54.20;100961.69;4918295;28;20076;-81
2023/07/29 06:40:30;;;;;;;12.00;6.60;;;;;;;27.12;54.32;100982.16;4924646;28;20058;-81
2023/07/29 06:43:01;;;;;;;13.27;6.60;;;;;;;27.08;53.11;100940.94;4946058;28;20050;-80
2023/07/29 06:45:28;;;;;;;10.50;6.05;;;;;;;27.16;53.71;100965.13;4951632;28;20050;-79
2023/07/29 06:47:54;;;;;;;9.60;5.57;;;;;;;27.38;53.57;100992.63;4922305;28;20050;-80
2023/07/29 06:50:21;;;;;;;10.63;5.97;;;;;;;27.33;53.25;100961.66;4921909;28;20242;-79
2023/07/29 06:52:48;;;;;;;10.32;6.05;;;;;;;27.24;53.60;100939.41;4928047;28;20137;-80
2023/07/29 06:55:15;;;;;;;11.55;6.32;;;;;;;27.60;53.43;100990.09;4938586;28;20350;-80
2023/07/29 06:57:50;;;;;;;11.55;6.20;;;;;;;27.46;53.80;100951.34;4931773;28;20078;-80
2023/07/29 07:00:25;;;;;;;12.65;6.47;;;;;;;27.56;53.54;100967.09;4932819;28;20204;-80
2023/07/29 07:02:57;;;;;;;10.60;6.00;;;;;;;27.74;52.49;100977.00;4947118;28;20145;-79
2023/07/29 07:05:26;;;;;;;9.50;5.63;;;;;;;27.77;52.54;100968.34;4936290;28;20050;-79
2023/07/29 07:07:53;;;;;;;13.82;6.65;;;;;;;27.98;52.22;100990.59;4935950;28;20058;-78
2023/07/29 07:10:20;;;;;;;9.75;5.85;;;;;;;27.96;52.31;101003.66;4929190;28;20062;-77
2023/07/29 07:12:47;;;;;;;12.15;5.95;;;;;;;27.86;53.17;101004.28;4925493;28;20047;-77
2023/07/29 07:15:18;;;;;;;14.25;6.38;;;;;;;27.85;52.82;101003.47;4929166;28;20046;-78
2023/07/29 07:17:47;;;;;;;9.90;5.40;;;;;;;28.00;52.53;101008.38;4924596;28;20085;-78
2023/07/29 07:20:14;;;;;;;10.13;5.97;;;;;;;27.68;52.24;100958.88;4927598;28;20509;-78
2023/07/29 07:22:41;;;;;;;13.75;6.32;;;;;;;27.92;52.12;100998.69;4933202;28;20152;-78
2023/07/29 07:25:08;;;;;;;10.98;6.32;;;;;;;27.92;51.79;100998.69;4920031;28;20047;-78
2023/07/29 07:27:37;;;;;;;11.82;6.50;;;;;;;27.77;52.36;100979.25;4940365;28;20357;-79
2023/07/29 07:30:06;;;;;;;15.55;7.30;;;;;;;27.89;51.99;100988.28;4944399;28;20459;-78
2023/07/29 07:32:37;;;;;;;11.85;7.05;;;;;;;27.85;52.73;100981.63;4951631;28;20125;-79
2023/07/29 07:35:09;;;;;;;14.82;6.72;;;;;;;27.71;52.61;100958.41;4927741;28;20513;-78
2023/07/29 07:37:37;;;;;;;11.20;6.32;;;;;;;27.90;52.27;100972.72;4941313;28;20506;-78
2023/07/29 07:40:04;;;;;;;11.25;6.75;;;;;;;27.48;51.75;100915.69;4930905;28;20270;-76
2023/07/29 07:42:39;;;;;;;9.90;6.00;;;;;;;27.63;52.29;100950.59;4939784;28;20056;-78
2023/07/29 07:45:06;;;;;;;11.50;6.25;;;;;;;27.87;51.74;100976.75;4947698;28;20163;-79
2023/07/29 07:47:32;;;;;;;9.65;7.07;;;;;;;27.85;52.17;100981.63;4916366;28;20054;-78
2023/07/29 07:49:59;;;;;;;10.05;7.25;;;;;;;27.92;52.26;100992.41;4913342;28;20621;-78
2023/07/29 07:52:26;;;;;;;8.18;6.55;;;;;;;27.95;51.99;100988.38;4918752;28;20133;-77
2023/07/29 07:54:58;;;;;;;14.23;6.95;;;;;;;27.95;52.14;100977.44;4900784;28;20054;-79
2023/07/29 07:57:28;;;;;;;8.85;6.60;;;;;;;28.07;52.23;100997.34;4924698;28;20058;-79
2023/07/29 08:00:02;;;;;;;11.77;6.53;;;;;;;28.12;51.80;100991.97;4924120;28;20581;-78
2023/07/29 08:02:31;;;;;;;10.27;6.45;;;;;;;28.06;50.96;100973.84;4931860;28;20456;-79
2023/07/29 08:05:03;;;;;;;7.80;5.57;;;;;;;28.03;51.84;100966.97;4908389;28;20482;-79
2023/07/29 08:07:40;;;;;;;14.57;6.57;;;;;;;28.23;50.65;100990.25;4924433;28;20051;-80
2023/07/29 08:10:21;;;;;;;12.32;6.28;;;;;;;28.16;51.17;100974.06;4907546;28;20052;-79
2023/07/29 08:12:50;;;;;;;15.93;6.63;;;;;;;28.16;51.12;100960.41;4927537;28;20061;-79
2023/07/29 08:15:23;;;;;;;12.15;6.53;;;;;;;28.31;50.91;100974.31;4899207;28;20355;-80
2023/07/29 08:18:09;;;;;;;11.90;5.57;;;;;;;27.57;50.31;100848.75;4957110;28;20500;-78
2023/07/29 08:20:36;;;;;;;11.25;6.15;;;;;;;28.26;50.83;100946.94;4923840;28;20049;-78
2023/07/29 08:23:09;;;;;;;9.15;6.28;;;;;;;28.48;50.91;100984.47;4916877;28;20054;-77
2023/07/29 08:25:39;;;;;;;7.60;6.00;;;;;;;28.72;50.43;100976.97;4923567;28;20490;-78
2023/07/29 08:28:06;;;;;;;12.85;6.68;;;;;;;28.39;49.89;100939.50;4925453;28;20594;-78
2023/07/29 08:30:42;;;;;;;9.88;6.45;;;;;;;28.21;49.10;100905.09;4929243;28;20064;-79
2023/07/29 08:33:08;;;;;;;13.57;6.03;;;;;;;28.86;49.74;100988.38;4945330;28;20490;-79
2023/07/29 08:35:36;;;;;;;10.30;5.38;;;;;;;28.92;49.36;100958.16;4939479;28;20044;-80
2023/07/29 08:38:07;;;;;;;9.02;5.97;;;;;;;28.90;49.63;100976.69;4955838;28;20065;-80
2023/07/29 08:41:05;;;;;;;9.65;5.80;;;;;;;28.92;48.92;100971.00;4939342;28;20205;-79
2023/07/29 08:43:32;;;;;;;13.70;5.78;;;;;;;29.05;49.07;100972.53;4963993;28;20547;-78
2023/07/29 08:46:07;;;;;;;9.52;6.20;;;;;;;29.06;49.00;100985.16;4934301;28;20054;-81
2023/07/29 08:48:43;;;;;;;10.45;6.10;;;;;;;29.11;49.46;100977.06;4940704;28;20490;-79
2023/07/29 08:51:11;;;;;;;8.35;6.13;;;;;;;29.27;49.17;100978.09;4918538;28;20221;-79
2023/07/29 08:53:39;;;;;;;12.90;6.85;;;;;;;29.25;48.38;100978.34;4935675;28;20054;-79
2023/07/29 08:56:07;;;;;;;13.95;5.88;;;;;;;29.24;48.08;100982.16;4902354;28;20042;-80
2023/07/29 08:58:51;;;;;;;7.85;5.30;;;;;;;29.11;48.61;100969.69;4911205;28;20132;-79
2023/07/29 09:01:30;;;;;;;8.95;5.95;;;;;;;29.12;48.78;100946.72;4918238;28;20054;-79
2023/07/29 09:04:00;;;;;;;7.93;5.63;;;;;;;28.69;48.74;100887.31;4906750;28;20371;-79
2023/07/29 09:06:27;;;;;;;11.75;5.57;;;;;;;29.67;47.87;100958.69;4941655;28;20593;-78
2023/07/29 09:09:00;;;;;;;9.73;6.00;;;;;;;29.61;47.72;100959.66;4907596;28;20074;-80
2023/07/29 09:11:32;;;;;;;11.85;5.75;;;;;;;29.45;48.08;100961.41;4901575;28;20050;-80
2023/07/29 09:14:04;;;;;;;13.23;6.20;;;;;;;29.27;48.84;100948.84;4896716;28;20436;-81
2023/07/29 09:16:39;;;;;;;8.43;5.30;;;;;;;29.10;48.06;100953.50;4920247;28;20129;-80
2023/07/29 09:19:12;;;;;;;13.10;5.65;;;;;;;29.17;49.05;100941.31;4914599;28;20565;-80
2023/07/29 09:21:40;;;;;;;12.57;6.10;;;;;;;28.82;48.23;100861.56;4904045;28;20663;-78
2023/07/29 09:24:08;;;;;;;9.00;5.47;;;;;;;29.65;47.76;100949.06;4958536;28;20060;-76
2023/07/29 09:26:35;;;;;;;10.35;5.55;;;;;;;29.65;47.20;100929.91;4926551;28;20426;-77
2023/07/29 09:29:07;;;;;;;10.18;5.43;;;;;;;29.71;47.73;100956.25;4921969;28;20078;-78
2023/07/29 09:31:43;;;;;;;14.50;6.85;;;;;;;29.55;47.41;100923.22;4947898;28;20490;-78
2023/07/29 09:34:19;;;;;;;12.68;6.05;;;;;;;29.23;47.72;100908.63;4945548;28;20060;-79
2023/07/29 09:36:52;;;;;;;12.80;6.50;;;;;;;29.41;48.41;100954.78;4941418;28;20077;-78
2023/07/29 09:39:27;;;;;;;14.33;6.83;;;;;;;29.52;47.55;100940.16;4921000;28;20050;-80
2023/07/29 09:42:02;;;;;;;9.68;5.45;;;;;;;29.59;47.64;100949.00;4914969;28;20129;-80
2023/07/29 09:44:41;;;;;;;11.35;6.30;;;;;;;29.09;47.90;100924.53;4920835;28;20513;-77
2023/07/29 09:47:07;;;;;;;13.23;6.78;;;;;;;29.48;47.47;100921.78;4933400;28;20485;-79
2023/07/29 09:49:36;;;;;;;10.02;6.00;;;;;;;29.51;47.37;100924.81;4949803;28;20295;-79
2023/07/29 09:52:08;;;;;;;8.18;6.25;;;;;;;29.12;47.97;100932.22;4905449;28;20050;-79
2023/07/29 09:54:38;;;;;;;12.73;6.78;;;;;;;29.53;47.63;100952.75;4932935;28;20162;-80
2023/07/29 09:57:08;;;;;;;10.43;6.10;;;;;;;29.56;47.58;100935.81;4930384;28;20057;-80
2023/07/29 09:59:42;;;;;;;11.98;6.43;;;;;;;29.57;47.43;100931.19;4921596;28;20076;-79
2023/07/29 10:02:19;;;;;;;10.88;6.05;;;;;;;29.23;47.78;100894.94;4929390;28;20510;-79
2023/07/29 10:04:55;;;;;;;12.43;6.30;;;;;;;29.75;47.17;100938.25;4931430;28;20137;-81
2023/07/29 10:07:27;;;;;;;;;;;;;;;29.72;47.25;100938.78;4936092;28;20580;-79
2023/07/29 10:09:55;;;;;;;9.15;6.55;;;;;;;29.61;47.01;100886.66;4933191;28;20032;-78
2023/07/29 10:12:24;;;;;;;9.63;6.70;;;;;;;29.58;46.79;100889.06;4925735;28;20244;-80
2023/07/29 10:15:06;;;;;;;8.70;6.18;;;;;;;29.82;47.41;100927.94;4928228;28;20046;-80
2023/07/29 10:17:39;;;;;;;9.77;6.70;;;;;;;30.06;46.50;100935.88;4928436;28;20046;-80
2023/07/29 10:20:08;;;;;;;12.90;7.35;;;;;;;29.72;46.47;100879.41;4945908;28;20055;-78
2023/07/29 10:22:46;;;;;;;10.65;6.50;;;;;;;29.66;46.73;100928.81;4911874;28;20450;-79
2023/07/29 10:25:17;;;;;;;8.15;6.45;;;;;;;29.96;46.25;100931.94;4923625;28;20577;-79
2023/07/29 10:27:48;;;;;;;12.40;6.70;;;;;;;29.67;45.06;100859.38;4935651;28;20523;-79
2023/07/29 10:30:15;;;;;;;9.20;6.07;;;;;;;29.90;45.04;100875.47;4929403;28;20077;-82
2023/07/29 10:32:44;;;;;;;13.05;5.30;;;;;;;30.26;45.60;100927.88;4936094;28;20053;-79
2023/07/29 10:35:18;;;;;;;14.30;6.05;;;;;;;30.36;45.62;100943.56;4967413;28;20061;-78
2023/07/29 10:37:50;;;;;;;9.60;6.50;;;;;;;30.35;45.41;100912.63;4950585;28;20073;-78
2023/07/29 10:40:22;;;;;;;7.55;6.53;;;;;;;30.54;44.35;100885.66;4964552;28;20497;-80
2023/07/29 10:43:12;;;;;;;8.07;5.53;;;;;;;30.65;44.60;100919.41;4961115;28;20344;-78
2023/07/29 10:45:43;;;;;;;9.77;6.32;;;;;;;30.26;45.54;100930.59;4941981;28;20663;-79
2023/07/29 10:48:33;;;;;;;6.75;5.53;;;;;;;30.38;45.27;100920.31;4963196;28;20439;-79
2023/07/29 10:51:35;;;;;;;9.40;5.93;;;;;;;30.37;45.19;100923.31;4948491;28;20053;-79
2023/07/29 10:54:15;;;;;;;9.85;5.43;;;;;;;30.60;44.54;100908.44;4937371;28;20276;-79
2023/07/29 10:56:50;;;;;;;8.47;5.93;;;;;;;30.22;44.66;100883.72;4931459;28;20112;-79
2023/07/29 10:59:20;;;;;;;9.73;5.68;;;;;;;30.47;44.78;100928.06;4940826;28;20140;-80
2023/07/29 11:02:03;;;;;;;5.80;5.00;;;;;;;30.72;44.71;100913.72;4960904;28;20431;-80
2023/07/29 11:04:46;;;;;;;10.93;5.78;;;;;;;31.05;44.38;100929.06;4918136;28;20055;-80
2023/07/29 11:07:13;;;;;;;15.20;6.30;;;;;;;31.02;43.95;100872.00;4920620;28;20460;-79
2023/07/29 11:09:41;;;;;;;9.32;5.82;;;;;;;31.45;42.52;100916.66;4919163;28;20046;-78
2023/07/29 11:12:34;;;;;;;8.23;5.80;;;;;;;31.70;41.41;100930.47;4925110;28;20058;-79
2023/07/29 11:15:10;;;;;;;8.18;5.15;;;;;;;31.97;41.58;100918.50;4922335;28;20267;-80
2023/07/29 11:18:02;;;;;;;8.00;5.75;;;;;;;31.86;42.16;100881.91;4924816;28;20125;-81
2023/07/29 11:20:31;;;;;;;11.05;5.95;;;;;;;32.22;41.21;100914.13;4905482;28;20150;-81
2023/07/29 11:23:01;;;;;;;9.38;5.82;;;;;;;32.34;40.42;100901.75;4921579;28;20085;-79
2023/07/29 11:25:35;;;;;;;7.40;5.90;;;;;;;32.24;41.34;100899.00;4922572;28;20288;-80
2023/07/29 11:28:07;;;;;;;9.93;5.50;;;;;;;32.35;41.22;100897.06;4935605;28;20319;-79
2023/07/29 11:30:43;;;;;;;17.97;6.33;;;;;;;32.28;40.21;100869.06;4906732;28;20125;-79
2023/07/29 11:33:18;;;;;;;9.63;5.78;;;;;;;32.59;40.21;100896.56;4928762;28;20073;-80
2023/07/29 11:35:51;;;;;;;8.48;5.68;;;;;;;32.65;40.60;100876.19;4916999;28;20135;-80
2023/07/29 11:38:26;;;;;;;9.88;5.63;;;;;;;32.92;39.66;100882.19;4928584;28;20046;-79
2023/07/29 11:41:05;;;;;;;5.78;5.18;;;;;;;32.78;40.50;100881.94;4918492;28;20046;-77